高松空港の過去48時間の天気

高松空港 (Takamatsu)

現在時刻: 9/23 08:57 JST (9/22 23:57 UTC) 以下の時間は現地時間です。

過去48時間のMETAR気象情報
時間 風向 風速(m/s) 視程 気温(℃) 湿度(%) 気圧(hPa) 天気現象
23 08:00 西南西 4 10km以上 24 69 1015
23 07:00 南南西 3 10km以上 20 83 1015
23 06:20 南南西 4 10km以上 20 78 1015
22 21:00 南東 4 10km以上 21 83 1013
22 20:00 南南東 4 10km以上 21 88 1012
22 19:00 南南東 2 10km以上 22 94 1011
22 18:00 西南西 4 10km以上 24 89 1010
22 17:00 西南西 4 10km以上 26 79 1010
22 16:00 西南西 4 10km以上 26 84 1010
22 15:00 南西 3 10km以上 25 89 1010 周辺でしゅう雨
22 14:34 南南西 3 10km以上 23 100 1010 弱いしゅう雨
22 14:10 南西 4 10km以上 23 100 1010 弱い雷雨
22 14:04 西南西 3 5000m 23 100 1010 弱いしゅう雨 もや
22 13:18 西 4 5000m 23 100 1010 弱いしゅう雨 もや
22 13:12 西 4 3500m 23 100 1010 しゅう雨 もや
22 13:00 西北西 5 10km以上 24 89 1010 弱いしゅう雨
22 12:37 西北西 5 10km以上 26 84 1010 周辺でしゅう雨
22 12:00 2 10km以上 27 79 1010 周辺でしゅう雨
22 11:00 北北西 3 10km以上 27 79 1010
22 10:00 2 10km以上 28 74 1010
22 09:00 不定 1 10km以上 26 84 1010
22 08:00 不定 1 10km以上 24 89 1010
22 07:00 南西 3 10km以上 22 94 1010
22 06:20 南南東 2 10km以上 22 94 1010
21 21:00 南南東 2 10km以上 23 89 1011
21 20:00 南東 3 10km以上 23 94 1011
21 19:00 不定 1 10km以上 25 78 1010
21 18:00 不定 1 10km以上 26 74 1010
21 17:00 3 10km以上 28 70 1010
21 16:00 東北東 4 10km以上 28 70 1010
21 15:00 東北東 5 10km以上 28 66 1010
21 14:00 5 10km以上 29 66 1011
21 13:00 東北東 4 10km以上 28 66 1011
21 12:00 北東 3 10km以上 28 66 1012
21 11:00 北東 3 10km以上 28 62 1012
21 10:00 北東 3 10km以上 27 66 1013
21 09:00 南東 2 10km以上 25 69 1013
RJOT 222300Z 24008KT 9999 FEW025 24/18 Q1015
RJOT 222200Z 21006KT 9999 FEW025 20/17 Q1015
RJOT 222120Z 21008KT 9999 FEW025 20/16 Q1015 RMK 1CU025 A2997
RJOT 221200Z 14007KT 9999 FEW030 21/18 Q1013
RJOT 221100Z 15007KT 9999 FEW030 21/19 Q1012
RJOT 221000Z 15004KT 100V230 9999 FEW030 22/21 Q1011
RJOT 220900Z 24007KT 9999 FEW030 BKN/// 24/22 Q1010
RJOT 220800Z 24008KT 9999 FEW025 BKN/// 26/22 Q1010
RJOT 220700Z 25008KT 9999 FEW025 SCT150 BKN/// 26/23 Q1010
RJOT 220600Z 22006KT 9999 VCSH FEW005 SCT030 BKN100 25/23 Q1010
RJOT 220534Z 20005KT 160V230 9999 -SHRA FEW002 FEW025CB SCT030 BKN070 23/23 Q1010 RMK 1ST002 1CB025 3CU030 5AC070 A2984 CB 15KM S MOV NE
RJOT 220510Z 23007KT 9999 R26/2000N -TSRA FEW002 SCT020 FEW025CB BKN045 23/23 Q1010 RMK 1ST002 3CU020 1CB025 5CU045 A2984 FBL TS 10KM S MOV NE
RJOT 220504Z 24006KT 5000 R26/2000N -SHRA BR FEW002 SCT020 FEW025CB BKN045 23/23 Q1010 RMK 1ST002 3CU020 1CB025 5CU045 A2984 CB 10KM SW MOV NE
RJOT 220418Z 27008KT 5000 -SHRA BR FEW002 SCT020 FEW025CB BKN045 23/23 Q1010 RMK 1ST002 3CU020 1CB025 5CU045 A2984 CB SW
RJOT 220412Z 27008KT 3500 SHRA BR FEW002 SCT020 FEW025CB BKN040 23/23 Q1010 RMK 1ST002 3CU020 2CB025 5CU040 A2985 CB OHD AND 25KM NE MOV NE
RJOT 220400Z 29009KT 9999 -SHRA FEW003 SCT020 FEW025CB BKN040 24/22 Q1010
RJOT 220337Z 29010KT 9999 VCSH FEW005 SCT020 FEW025CB BKN040 26/23 Q1010 RMK 1ST005 3CU020 1CB025 5CU040 A2985 CB 5KM E AND 20KM SW MOV NE
RJOT 220300Z 36004KT 320V060 9999 VCSH FEW005 SCT020 FEW025CB BKN040 27/23 Q1010
RJOT 220200Z 34005KT 300V010 9999 FEW020 SCT035 BKN050 27/23 Q1010
RJOT 220100Z 36004KT 330V040 9999 FEW020 SCT100 BKN/// 28/23 Q1010
RJOT 220000Z VRB01KT 9999 FEW015 BKN/// 26/23 Q1010
RJOT 212300Z VRB02KT 9999 FEW005 SCT060 BKN150 24/22 Q1010
RJOT 212200Z 23005KT 9999 FEW005 SCT050 BKN100 22/21 Q1010
RJOT 212120Z 15004KT 120V190 9999 FEW003 SCT050 BKN100 22/21 Q1010 RMK 1ST003 3SC050 5AC100 A2984
RJOT 211200Z 15004KT 9999 FEW030 BKN080 23/21 Q1011
RJOT 211100Z 13005KT 9999 FEW030 23/22 Q1011
RJOT 211000Z VRB02KT 9999 FEW030 25/21 Q1010
RJOT 210900Z VRB02KT 9999 FEW030 SCT100 26/21 Q1010
RJOT 210800Z 01005KT 9999 FEW030 28/22 Q1010
RJOT 210700Z 06008KT 9999 FEW030 SCT100 28/22 Q1010
RJOT 210600Z 06010KT 9999 FEW030 28/21 Q1010
RJOT 210500Z 09009KT 9999 FEW030 29/22 Q1011
RJOT 210400Z 07007KT 040V100 9999 FEW025 28/21 Q1011
RJOT 210300Z 05006KT 340V090 9999 FEW025 28/21 Q1012
RJOT 210200Z 05005KT 330V130 9999 FEW020 28/20 Q1012
RJOT 210100Z 05006KT 340V090 9999 FEW020 27/20 Q1013
RJOT 210000Z 13003KT 040V200 9999 FEW025 25/19 Q1013